Time;durP1;ratioP1;P1;durP2;ratioP2;P2;SDS_P1;SDS_P2;PMS_P1;PMS_P2;Temp;Humidity;BMP_temperature;BMP_pressure;BME280_temperature;BME280_humidity;BME280_pressure;Samples;Min_cycle;Max_cycle;Signal;HPM_P1;HPM_P2
2023/03/08 00:01:18;;;;;;;5.40;1.38;;;;;;;14.14;62.30;95537.00;5004553;28;20478;-27
2023/03/08 00:03:44;;;;;;;3.83;1.05;;;;;;;14.03;62.68;95543.03;4997323;28;20390;-27
2023/03/08 00:06:14;;;;;;;3.00;1.40;;;;;;;14.11;62.48;95534.44;5002457;28;20243;-27
2023/03/08 00:08:40;;;;;;;2.38;1.30;;;;;;;14.06;62.68;95535.13;5004282;28;20026;-27
2023/03/08 00:11:11;;;;;;;5.20;1.52;;;;;;;14.10;62.86;95541.13;4999758;28;20041;-27
2023/03/08 00:13:37;;;;;;;3.65;1.20;;;;;;;14.01;62.74;95536.53;5000778;28;20058;-27
2023/03/08 00:16:05;;;;;;;2.35;1.15;;;;;;;13.98;62.59;95535.47;4997939;28;20437;-27
2023/03/08 00:18:32;;;;;;;2.75;1.27;;;;;;;13.89;63.43;95537.56;5002559;28;20057;-27
2023/03/08 00:21:03;;;;;;;3.42;1.20;;;;;;;13.97;62.86;95538.69;4999191;28;20453;-27
2023/03/08 00:23:29;;;;;;;3.42;1.55;;;;;;;13.93;63.27;95547.06;5001034;28;20395;-27
2023/03/08 00:25:55;;;;;;;3.17;1.40;;;;;;;13.92;63.44;95542.81;5003678;28;20037;-27
2023/03/08 00:28:20;;;;;;;4.75;1.52;;;;;;;14.01;62.94;95537.28;4997618;28;20038;-27
2023/03/08 00:31:07;;;;;;;2.42;1.35;;;;;;;14.04;62.93;95543.78;4996921;28;20038;-27
2023/03/08 00:33:32;;;;;;;4.47;1.60;;;;;;;13.94;63.52;95543.13;4996904;28;20026;-27
2023/03/08 00:36:06;;;;;;;5.00;1.73;;;;;;;14.01;63.06;95534.56;4996940;28;20076;-27
2023/03/08 00:38:34;;;;;;;4.53;1.33;;;;;;;13.94;63.56;95542.38;5005359;28;20489;-27
2023/03/08 00:41:00;;;;;;;8.32;2.10;;;;;;;13.90;63.99;95545.28;5002496;28;20032;-27
2023/03/08 00:43:27;;;;;;;4.95;1.70;;;;;;;13.93;63.67;95538.88;4997998;28;20030;-27
2023/03/08 00:45:52;;;;;;;5.28;1.90;;;;;;;13.95;63.98;95541.16;4996790;28;20029;-27
2023/03/08 00:48:18;;;;;;;11.20;3.00;;;;;;;13.94;64.57;95540.38;4996887;28;20030;-27
2023/03/08 00:50:44;;;;;;;6.50;2.25;;;;;;;14.07;64.40;95528.44;4996761;28;20410;-27
2023/03/08 00:53:10;;;;;;;6.47;2.13;;;;;;;14.05;64.41;95528.91;4996505;28;20030;-27
2023/03/08 00:55:35;;;;;;;8.75;3.08;;;;;;;14.03;64.65;95521.22;5003534;28;20077;-27
2023/03/08 00:58:01;;;;;;;7.95;2.58;;;;;;;14.06;64.91;95518.78;5002911;28;20022;-27
2023/03/08 01:00:27;;;;;;;9.32;3.28;;;;;;;14.05;64.90;95528.16;5003368;28;20018;-27
2023/03/08 01:02:53;;;;;;;9.57;3.75;;;;;;;14.16;64.56;95525.63;5010401;28;20125;-27
2023/03/08 01:05:18;;;;;;;7.88;3.85;;;;;;;14.26;64.05;95535.19;5000861;28;20032;-27
2023/03/08 01:07:44;;;;;;;7.68;2.47;;;;;;;14.24;64.57;95530.22;4996861;28;20423;-27
2023/03/08 01:10:10;;;;;;;8.90;2.30;;;;;;;14.05;65.32;95530.88;4999665;28;20431;-27
2023/03/08 01:12:35;;;;;;;5.80;2.65;;;;;;;14.12;65.31;95525.06;4999561;28;20512;-27
2023/03/08 01:15:02;;;;;;;8.98;3.10;;;;;;;14.12;65.38;95527.78;5003301;28;20132;-27
2023/03/08 01:17:31;;;;;;;6.00;3.03;;;;;;;14.11;65.90;95523.53;4996131;28;20483;-27
2023/03/08 01:19:56;;;;;;;6.30;2.83;;;;;;;14.02;65.55;95525.16;5003822;28;20089;-27
2023/03/08 01:22:22;;;;;;;7.88;2.53;;;;;;;14.15;65.53;95510.47;4996215;28;20022;-27
2023/03/08 01:24:48;;;;;;;7.63;2.92;;;;;;;13.91;66.11;95508.63;4995884;28;20034;-27
2023/03/08 01:27:15;;;;;;;6.82;2.90;;;;;;;14.08;65.96;95499.97;5002938;28;20037;-27
2023/03/08 01:29:41;;;;;;;11.55;2.97;;;;;;;13.97;65.93;95504.00;5000258;28;20021;-27
2023/03/08 01:32:08;;;;;;;10.55;2.70;;;;;;;14.15;65.47;95505.78;4998625;28;20391;-27
2023/03/08 01:34:35;;;;;;;7.93;2.83;;;;;;;14.11;65.94;95499.00;4995834;28;20482;-27
2023/03/08 01:37:01;;;;;;;6.50;2.70;;;;;;;14.14;65.82;95495.34;5003097;28;20038;-27
2023/03/08 01:39:26;;;;;;;4.70;2.33;;;;;;;14.09;65.21;95498.75;4996612;28;20072;-27
2023/03/08 01:41:52;;;;;;;8.07;2.78;;;;;;;14.16;65.29;95495.63;4995849;28;20057;-27
2023/03/08 01:44:21;;;;;;;7.53;2.10;;;;;;;14.16;65.42;95492.91;5002695;28;20084;-27
2023/03/08 01:46:46;;;;;;;3.75;2.10;;;;;;;14.12;65.12;95489.59;5001609;28;20366;-27
2023/03/08 01:49:18;;;;;;;7.47;2.42;;;;;;;14.20;65.15;95488.78;4995573;28;20022;-27
2023/03/08 01:51:46;;;;;;;6.10;1.88;;;;;;;14.05;66.01;95495.44;5002893;28;20100;-27
2023/03/08 01:54:17;;;;;;;5.07;2.35;;;;;;;14.08;65.39;95497.25;4994129;28;20022;-27
2023/03/08 01:56:46;;;;;;;10.27;2.78;;;;;;;14.24;65.02;95497.50;5001741;28;20371;-27
2023/03/08 01:59:12;;;;;;;6.13;2.47;;;;;;;14.19;65.14;95491.97;5000217;28;20513;-27
2023/03/08 02:01:38;;;;;;;6.65;2.35;;;;;;;14.23;64.92;95487.81;5004676;28;20065;-27
2023/03/08 02:04:04;;;;;;;9.73;2.30;;;;;;;14.00;66.20;95492.16;4995342;28;20084;-27
2023/03/08 02:06:30;;;;;;;6.03;2.10;;;;;;;14.09;66.02;95490.56;4995519;28;20413;-27
2023/03/08 02:08:56;;;;;;;5.75;2.50;;;;;;;14.05;66.33;95485.31;4996089;28;20097;-27
2023/03/08 02:11:24;;;;;;;7.85;2.03;;;;;;;14.13;65.70;95478.22;4995260;28;20030;-27
2023/03/08 02:13:50;;;;;;;5.88;2.00;;;;;;;14.17;65.58;95481.53;5002307;28;20022;-27
2023/03/08 02:16:16;;;;;;;8.85;2.50;;;;;;;14.19;65.39;95486.50;5001878;28;20022;-27
2023/03/08 02:18:59;;;;;;;8.55;2.00;;;;;;;14.01;65.84;95485.47;5002414;28;20022;-27
2023/03/08 02:21:27;;;;;;;10.65;2.53;;;;;;;14.21;66.09;95486.78;4995520;28;20022;-27
2023/03/08 02:23:54;;;;;;;6.88;2.42;;;;;;;14.10;65.79;95484.63;4995335;28;20026;-27
2023/03/08 02:26:20;;;;;;;5.05;1.73;;;;;;;14.13;65.80;95485.66;5002180;28;20024;-27
2023/03/08 02:28:46;;;;;;;5.53;1.98;;;;;;;14.12;65.78;95478.69;5005031;28;20034;-27
2023/03/08 02:31:12;;;;;;;7.10;2.35;;;;;;;13.96;66.51;95482.69;5000807;28;20121;-27
2023/03/08 02:33:37;;;;;;;5.70;1.85;;;;;;;14.03;65.82;95485.78;4999484;28;20030;-27
2023/03/08 02:36:04;;;;;;;12.27;2.25;;;;;;;14.14;65.64;95490.66;4998996;28;20025;-27
2023/03/08 02:38:30;;;;;;;6.00;1.83;;;;;;;14.05;66.26;95487.28;4999028;28;20021;-27
2023/03/08 02:40:55;;;;;;;7.90;2.05;;;;;;;14.12;66.10;95486.88;4999133;28;20030;-27
2023/03/08 02:43:21;;;;;;;5.78;1.85;;;;;;;14.09;65.94;95491.31;5012809;28;20025;-27
2023/03/08 02:45:47;;;;;;;10.20;2.80;;;;;;;14.01;66.26;95487.44;5005507;28;20030;-27
2023/03/08 02:48:14;;;;;;;6.47;2.10;;;;;;;14.15;65.95;95499.56;4998963;28;20367;-27
2023/03/08 02:50:40;;;;;;;5.55;1.70;;;;;;;14.27;65.08;95502.00;4999590;28;20029;-27
2023/03/08 02:53:05;;;;;;;11.20;1.98;;;;;;;14.05;66.38;95511.81;5000004;28;20025;-27
2023/03/08 02:55:34;;;;;;;8.15;1.98;;;;;;;14.27;65.59;95502.00;5000386;28;20073;-27
2023/03/08 02:58:00;;;;;;;5.80;1.90;;;;;;;14.00;66.05;95511.25;5002301;28;20109;-27
2023/03/08 03:00:25;;;;;;;10.00;2.47;;;;;;;14.17;65.65;95508.78;5001289;28;20018;-27
2023/03/08 03:02:51;;;;;;;8.25;2.13;;;;;;;14.17;65.65;95508.03;5005749;28;20030;-27
2023/03/08 03:05:19;;;;;;;7.95;1.80;;;;;;;14.02;66.23;95503.34;4998579;28;20018;-27
2023/03/08 03:07:45;;;;;;;9.30;2.22;;;;;;;14.21;65.16;95498.44;4999041;28;20022;-27
2023/03/08 03:10:11;;;;;;;7.18;2.13;;;;;;;14.20;65.91;95496.19;4998428;28;20109;-27
2023/03/08 03:12:37;;;;;;;10.68;2.42;;;;;;;14.16;65.48;95507.28;4998586;28;20475;-27
2023/03/08 03:15:05;;;;;;;6.88;2.30;;;;;;;14.20;65.70;95499.69;5005254;28;20087;-27
2023/03/08 03:17:32;;;;;;;7.70;1.88;;;;;;;14.07;66.00;95510.13;5002906;28;20049;-27
2023/03/08 03:19:57;;;;;;;10.45;1.90;;;;;;;14.19;65.48;95505.59;5007584;28;20026;-27
2023/03/08 03:22:23;;;;;;;7.43;1.85;;;;;;;14.14;65.50;95509.72;4998177;28;20015;-27
2023/03/08 03:24:51;;;;;;;7.30;1.90;;;;;;;14.20;65.66;95518.75;4998245;28;20383;-27
2023/03/08 03:27:19;;;;;;;7.78;2.53;;;;;;;14.10;65.25;95517.34;4998627;28;20033;-27
2023/03/08 03:29:45;;;;;;;6.35;2.13;;;;;;;14.20;65.26;95524.22;4998110;28;20434;-27
2023/03/08 03:32:10;;;;;;;6.90;2.42;;;;;;;14.17;65.45;95513.50;5005541;28;20022;-27
2023/03/08 03:34:36;;;;;;;8.50;2.42;;;;;;;14.11;65.88;95518.09;5004541;28;20105;-27
2023/03/08 03:37:02;;;;;;;12.23;3.85;;;;;;;14.30;65.00;95516.69;5004724;28;20389;-27
2023/03/08 03:39:33;;;;;;;5.95;2.13;;;;;;;14.31;64.67;95518.19;4997051;28;20093;-27
2023/03/08 03:41:59;;;;;;;8.48;2.05;;;;;;;14.19;65.15;95511.06;5004370;28;20053;-27
2023/03/08 03:44:29;;;;;;;6.55;1.92;;;;;;;14.00;66.03;95505.03;4999441;28;20034;-27
2023/03/08 03:46:54;;;;;;;5.90;2.15;;;;;;;14.15;65.89;95505.03;5002284;28;20065;-27
2023/03/08 03:49:20;;;;;;;10.85;2.35;;;;;;;14.20;65.71;95512.56;4999983;28;20061;-27
2023/03/08 03:51:45;;;;;;;5.97;1.85;;;;;;;14.19;65.44;95516.50;5004993;28;20022;-27
2023/03/08 03:54:11;;;;;;;5.70;2.13;;;;;;;14.20;65.19;95513.31;4997830;28;20018;-27
2023/03/08 03:56:36;;;;;;;7.80;2.45;;;;;;;14.12;65.66;95519.59;4998237;28;20014;-27
2023/03/08 03:59:01;;;;;;;4.97;1.88;;;;;;;14.07;65.56;95514.81;4997607;28;20041;-27
2023/03/08 04:01:29;;;;;;;8.80;2.08;;;;;;;13.93;66.29;95517.06;5004808;28;20522;-27
2023/03/08 04:03:56;;;;;;;7.40;1.92;;;;;;;14.06;65.59;95524.22;5010991;28;20025;-27
2023/03/08 04:06:24;;;;;;;7.00;2.03;;;;;;;13.99;66.21;95531.53;5002481;28;20069;-27
2023/03/08 04:08:59;;;;;;;7.45;1.80;;;;;;;14.17;65.47;95524.41;4998993;28;20187;-27
2023/03/08 04:11:27;;;;;;;7.93;2.00;;;;;;;14.33;64.55;95543.00;4997148;28;20356;-27
2023/03/08 04:13:54;;;;;;;9.38;1.90;;;;;;;14.15;65.73;95535.78;4998132;28;20533;-27
2023/03/08 04:16:24;;;;;;;6.53;2.10;;;;;;;14.21;65.39;95546.78;5000661;28;20043;-27
2023/03/08 04:18:59;;;;;;;5.38;2.10;;;;;;;14.27;65.00;95544.88;5006828;28;20044;-27
2023/03/08 04:21:24;;;;;;;5.65;1.70;;;;;;;14.09;65.51;95542.38;4997045;28;20096;-27
2023/03/08 04:23:50;;;;;;;6.75;1.83;;;;;;;14.02;66.18;95544.25;4997172;28;20026;-27
2023/03/08 04:26:16;;;;;;;11.73;2.38;;;;;;;14.03;66.17;95551.19;4997857;28;20024;-27
2023/03/08 04:28:42;;;;;;;9.18;2.25;;;;;;;14.26;65.44;95548.84;4997261;28;20370;-27
2023/03/08 04:31:13;;;;;;;7.00;3.53;;;;;;;14.26;65.00;95551.56;4997470;28;20022;-27
2023/03/08 04:33:39;;;;;;;5.45;1.88;;;;;;;14.07;65.90;95553.00;5003324;28;20065;-27
2023/03/08 04:36:04;;;;;;;9.25;2.00;;;;;;;14.19;65.21;95560.88;5004881;28;20055;-27
2023/03/08 04:38:32;;;;;;;8.68;2.33;;;;;;;14.03;65.87;95553.91;4997410;28;20034;-27
2023/03/08 04:41:00;;;;;;;10.00;2.55;;;;;;;14.17;65.55;95549.69;4997925;28;20053;-27
2023/03/08 04:43:27;;;;;;;7.75;2.28;;;;;;;14.19;65.50;95554.69;5004827;28;20029;-27
2023/03/08 04:45:52;;;;;;;9.20;3.10;;;;;;;14.06;65.89;95554.22;4996858;28;20409;-27
2023/03/08 04:48:18;;;;;;;6.43;1.90;;;;;;;14.21;65.27;95560.41;4998796;28;20032;-27
2023/03/08 04:50:43;;;;;;;10.23;2.08;;;;;;;14.10;65.93;95558.22;5002527;28;20022;-27
2023/03/08 04:53:09;;;;;;;11.95;2.90;;;;;;;14.17;65.36;95557.13;5004023;28;20458;-27
2023/03/08 04:55:37;;;;;;;11.38;2.25;;;;;;;14.25;65.25;95550.81;5003662;28;20052;-27
2023/03/08 04:58:03;;;;;;;8.50;2.13;;;;;;;14.11;65.83;95559.00;4996834;28;20026;-27
2023/03/08 05:00:28;;;;;;;10.00;2.90;;;;;;;14.25;65.24;95555.50;5003709;28;20083;-27
2023/03/08 05:02:53;;;;;;;9.48;2.55;;;;;;;14.15;65.59;95554.88;5003810;28;20121;-27
2023/03/08 05:05:19;;;;;;;10.30;2.72;;;;;;;14.20;65.42;95553.47;5001518;28;20319;-27
2023/03/08 05:07:44;;;;;;;10.20;2.33;;;;;;;14.08;65.95;95555.25;4998535;28;20433;-27
2023/03/08 05:10:10;;;;;;;8.13;2.13;;;;;;;14.21;65.50;95557.69;5003033;28;20041;-27
2023/03/08 05:12:35;;;;;;;8.77;2.60;;;;;;;14.19;65.69;95560.13;4996286;28;20101;-27
2023/03/08 05:15:01;;;;;;;11.40;2.35;;;;;;;14.15;65.67;95556.84;4996729;28;20029;-27
2023/03/08 05:17:26;;;;;;;10.43;2.60;;;;;;;14.17;65.70;95554.41;4996316;28;20054;-27
2023/03/08 05:19:52;;;;;;;6.85;2.15;;;;;;;14.14;65.79;95564.25;5003996;28;20030;-27
2023/03/08 05:22:17;;;;;;;12.40;2.10;;;;;;;14.07;65.98;95563.91;5002497;28;20041;-27
2023/03/08 05:24:43;;;;;;;10.98;3.17;;;;;;;14.01;66.34;95571.97;5001563;28;20022;-27
2023/03/08 05:27:08;;;;;;;9.43;3.00;;;;;;;14.05;66.38;95563.59;4997426;28;20084;-27
2023/03/08 05:29:36;;;;;;;10.23;2.20;;;;;;;14.02;65.79;95573.47;4995963;28;20025;-27
2023/03/08 05:32:02;;;;;;;6.13;2.30;;;;;;;14.09;65.74;95575.09;4996372;28;20022;-27
2023/03/08 05:34:29;;;;;;;10.38;3.55;;;;;;;14.20;65.82;95583.47;4995997;28;20038;-27
2023/03/08 05:36:54;;;;;;;13.02;2.63;;;;;;;14.10;66.12;95579.28;4995980;28;20018;-27
2023/03/08 05:39:20;;;;;;;10.40;2.53;;;;;;;14.13;65.69;95583.81;5003116;28;20478;-27
2023/03/08 05:41:45;;;;;;;7.88;2.25;;;;;;;14.01;66.50;95583.63;5006653;28;20030;-27
2023/03/08 05:44:11;;;;;;;6.03;2.95;;;;;;;14.07;66.10;95593.88;4998304;28;20030;-27
2023/03/08 05:46:39;;;;;;;10.77;3.45;;;;;;;14.08;66.62;95598.13;4996214;28;20022;-27
2023/03/08 05:49:05;;;;;;;9.27;2.80;;;;;;;14.19;65.86;95592.84;4995714;28;20478;-27
2023/03/08 05:51:31;;;;;;;8.30;2.30;;;;;;;14.20;65.95;95597.09;4996247;28;20149;-27
2023/03/08 05:53:57;;;;;;;10.73;2.53;;;;;;;14.10;65.70;95609.28;4999112;28;20116;-27
2023/03/08 05:56:23;;;;;;;8.95;2.75;;;;;;;14.07;66.75;95607.53;4998218;28;20018;-27
2023/03/08 05:58:49;;;;;;;6.28;2.17;;;;;;;14.16;65.94;95618.34;5002560;28;20032;-27
2023/03/08 06:01:16;;;;;;;11.15;2.20;;;;;;;14.08;66.81;95619.94;5001691;28;20117;-27
2023/03/08 06:03:43;;;;;;;5.68;2.10;;;;;;;14.29;65.69;95622.28;4996232;28;20037;-27
2023/03/08 06:06:09;;;;;;;6.15;2.33;;;;;;;14.09;66.61;95622.19;4995466;28;20101;-27
2023/03/08 06:08:36;;;;;;;11.70;2.10;;;;;;;14.07;66.75;95618.41;4995313;28;20525;-27
2023/03/08 06:11:02;;;;;;;7.78;2.63;;;;;;;14.20;65.82;95627.09;5009474;28;20076;-27
2023/03/08 06:13:27;;;;;;;5.95;2.03;;;;;;;14.13;66.09;95633.66;5000185;28;20025;-27
2023/03/08 06:15:55;;;;;;;8.02;2.75;;;;;;;14.16;66.05;95627.25;4997303;28;20382;-27
2023/03/08 06:18:21;;;;;;;13.52;2.50;;;;;;;14.14;66.70;95637.13;4999305;28;20037;-27
2023/03/08 06:21:14;;;;;;;6.75;2.60;;;;;;;14.17;66.39;95638.94;4998102;28;20463;-27
2023/03/08 06:23:40;;;;;;;8.33;2.47;;;;;;;14.14;66.46;95645.31;4995280;28;20018;-27
2023/03/08 06:26:07;;;;;;;10.90;2.95;;;;;;;14.14;66.34;95642.59;4995857;28;20284;-27
2023/03/08 06:28:32;;;;;;;9.25;2.60;;;;;;;14.07;67.18;95641.00;5001497;28;20046;-27
2023/03/08 06:30:58;;;;;;;8.20;3.00;;;;;;;14.13;67.08;95638.34;5001926;28;20050;-27
2023/03/08 06:33:26;;;;;;;7.18;2.85;;;;;;;14.13;66.70;95633.66;5002447;28;20084;-27
2023/03/08 06:36:04;;;;;;;10.18;3.35;;;;;;;13.93;68.18;95639.75;4995190;28;20022;-27
2023/03/08 06:38:32;;;;;;;7.00;2.75;;;;;;;13.90;68.09;95646.13;5002447;28;20153;-27
2023/03/08 06:40:59;;;;;;;10.38;2.85;;;;;;;14.08;67.33;95645.22;4995341;28;20034;-27
2023/03/08 06:43:25;;;;;;;9.23;3.13;;;;;;;14.10;67.38;95655.63;5009277;28;20149;-27
2023/03/08 06:45:52;;;;;;;6.53;3.10;;;;;;;13.94;68.22;95656.84;4997142;28;20025;-27
2023/03/08 06:48:18;;;;;;;11.82;3.40;;;;;;;14.22;67.45;95657.34;4995695;28;20402;-27
2023/03/08 06:50:44;;;;;;;10.30;3.30;;;;;;;14.10;67.89;95661.09;4995011;28;20073;-27
2023/03/08 06:53:10;;;;;;;11.48;3.25;;;;;;;14.02;68.07;95658.75;4994874;28;20076;-27
2023/03/08 06:55:37;;;;;;;10.75;3.58;;;;;;;14.17;67.67;95660.75;5001106;28;20018;-27
2023/03/08 06:58:03;;;;;;;8.93;3.67;;;;;;;14.26;67.43;95660.66;4993816;28;20026;-27
2023/03/08 07:00:28;;;;;;;13.40;3.50;;;;;;;14.21;68.07;95661.31;5008499;28;20360;-27
2023/03/08 07:02:54;;;;;;;6.68;3.10;;;;;;;14.19;68.31;95669.22;5001828;28;20034;-27
2023/03/08 07:05:20;;;;;;;9.80;3.42;;;;;;;14.24;67.91;95663.09;4994710;28;20058;-27
2023/03/08 07:07:46;;;;;;;10.45;3.60;;;;;;;14.16;67.91;95665.44;4995322;28;20030;-27
2023/03/08 07:10:16;;;;;;;12.80;4.30;;;;;;;14.11;68.90;95657.91;4994865;28;20036;-27
2023/03/08 07:12:47;;;;;;;10.18;3.50;;;;;;;14.27;68.08;95670.34;5002148;28;20021;-27
2023/03/08 07:15:14;;;;;;;10.20;3.20;;;;;;;14.30;68.17;95674.88;5001323;28;20025;-27
2023/03/08 07:17:41;;;;;;;9.93;3.30;;;;;;;14.07;69.07;95678.41;5001903;28;20445;-27
2023/03/08 07:20:08;;;;;;;13.52;4.35;;;;;;;13.86;69.97;95675.50;5006183;28;20029;-27
2023/03/08 07:22:33;;;;;;;13.85;4.72;;;;;;;14.14;69.33;95667.88;4998686;28;20030;-27
2023/03/08 07:24:59;;;;;;;17.45;3.90;;;;;;;14.13;69.12;95684.69;4998733;28;20022;-27
2023/03/08 07:27:24;;;;;;;16.23;4.68;;;;;;;14.29;68.15;95678.81;4998271;28;20018;-27
2023/03/08 07:29:50;;;;;;;11.15;3.78;;;;;;;14.19;68.89;95688.31;5004750;28;20470;-27
2023/03/08 07:32:15;;;;;;;11.95;3.88;;;;;;;14.39;68.02;95685.69;5005169;28;20024;-27
2023/03/08 07:34:41;;;;;;;12.30;3.70;;;;;;;14.25;68.32;95686.41;4998082;28;20077;-27
2023/03/08 07:37:14;;;;;;;14.68;3.80;;;;;;;14.02;70.00;95686.00;4998378;28;20089;-27
2023/03/08 07:39:39;;;;;;;;;;;;;;;14.26;69.50;95688.69;4998421;28;20037;-27
2023/03/08 07:42:07;;;;;;;11.45;3.35;;;;;;;14.05;69.51;95699.94;4997929;28;19909;-27
2023/03/08 07:44:32;;;;;;;13.60;3.40;;;;;;;14.35;68.57;95691.31;5000000;28;20962;-27
2023/03/08 07:46:58;;;;;;;14.10;3.65;;;;;;;14.14;69.74;95694.38;5002703;28;20018;-27
2023/03/08 07:49:23;;;;;;;13.48;3.63;;;;;;;14.10;69.89;95685.63;5004851;28;20379;-27
2023/03/08 07:51:52;;;;;;;12.77;3.70;;;;;;;14.07;69.47;95689.31;4998039;28;20018;-27
2023/03/08 07:54:17;;;;;;;9.90;3.47;;;;;;;14.14;69.71;95700.59;4997756;28;20022;-27
2023/03/08 07:56:43;;;;;;;11.88;3.20;;;;;;;14.19;69.54;95691.78;4998220;28;20030;-27
2023/03/08 07:59:08;;;;;;;8.65;3.53;;;;;;;14.29;69.08;95689.72;4997839;28;20061;-27
2023/03/08 08:01:34;;;;;;;11.43;3.78;;;;;;;14.28;69.31;95696.41;5011523;28;20049;-27
2023/03/08 08:03:59;;;;;;;11.70;3.80;;;;;;;14.08;69.87;95707.19;5000118;28;20014;-27
2023/03/08 08:06:25;;;;;;;12.82;3.50;;;;;;;14.24;69.41;95712.94;5001241;28;20030;-27
2023/03/08 08:08:51;;;;;;;8.32;3.20;;;;;;;14.13;69.62;95703.78;4998209;28;20490;-27
2023/03/08 08:11:21;;;;;;;8.30;3.08;;;;;;;14.26;69.10;95707.78;4997357;28;20031;-27
2023/03/08 08:13:47;;;;;;;14.98;3.33;;;;;;;14.09;69.82;95714.13;4998133;28;20054;-27
2023/03/08 08:16:13;;;;;;;13.77;3.33;;;;;;;14.40;68.64;95711.03;4997279;28;20045;-27
2023/03/08 08:18:39;;;;;;;13.68;3.33;;;;;;;14.13;69.59;95720.91;5010471;28;20036;-27
2023/03/08 08:21:07;;;;;;;9.45;3.70;;;;;;;14.25;69.58;95728.06;5004836;28;20121;-27
2023/03/08 08:23:33;;;;;;;11.40;4.10;;;;;;;14.20;69.12;95734.19;5002138;28;20024;-27
2023/03/08 08:25:59;;;;;;;13.95;4.18;;;;;;;14.15;69.57;95736.81;4998606;28;20482;-27
2023/03/08 08:28:26;;;;;;;13.18;5.03;;;;;;;14.39;69.04;95753.88;4997059;28;20030;-27
2023/03/08 08:30:58;;;;;;;8.25;3.55;;;;;;;14.24;69.32;95753.09;4996925;28;20072;-27
2023/03/08 08:33:24;;;;;;;8.95;4.50;;;;;;;14.19;69.51;95748.28;5006355;28;20076;-27
2023/03/08 08:35:50;;;;;;;9.73;4.35;;;;;;;14.33;68.37;95736.66;5001561;28;20386;-27
2023/03/08 08:38:15;;;;;;;13.60;4.80;;;;;;;14.19;69.80;95745.56;5004120;28;20101;-27
2023/03/08 08:40:40;;;;;;;13.00;5.82;;;;;;;14.40;69.04;95754.66;4997034;28;20121;-27
2023/03/08 08:43:06;;;;;;;12.40;5.18;;;;;;;14.17;69.90;95753.47;4996700;28;20018;-27
2023/03/08 08:45:31;;;;;;;15.00;4.50;;;;;;;14.48;68.29;95748.38;4996299;28;20026;-27
2023/03/08 08:47:57;;;;;;;10.88;4.57;;;;;;;14.24;70.03;95742.94;4996669;28;20114;-27
2023/03/08 08:50:22;;;;;;;11.10;4.63;;;;;;;14.42;68.67;95761.16;5006415;28;20417;-27
2023/03/08 08:52:47;;;;;;;12.10;4.63;;;;;;;14.41;69.37;95767.84;4999220;28;20489;-27
2023/03/08 08:55:13;;;;;;;9.68;3.60;;;;;;;14.25;69.81;95765.50;5000481;28;20025;-27
2023/03/08 08:57:38;;;;;;;11.13;3.30;;;;;;;14.54;68.36;95776.53;4996993;28;20022;-27
2023/03/08 09:00:07;;;;;;;12.43;3.60;;;;;;;14.58;68.69;95766.19;5000706;28;20022;-27
2023/03/08 09:02:32;;;;;;;10.35;2.97;;;;;;;14.47;68.83;95771.41;4999146;28;20046;-27
2023/03/08 09:04:58;;;;;;;14.68;3.90;;;;;;;14.58;68.05;95774.38;5000369;28;20034;-27
2023/03/08 09:07:23;;;;;;;17.30;4.75;;;;;;;14.41;69.02;95775.28;5001843;28;20027;-27
2023/03/08 09:09:49;;;;;;;12.82;4.28;;;;;;;14.36;68.88;95780.13;5003564;28;20030;-27
2023/03/08 09:12:14;;;;;;;13.52;3.90;;;;;;;14.30;69.64;95790.19;4996155;28;20018;-27
2023/03/08 09:14:39;;;;;;;12.65;4.90;;;;;;;14.30;69.66;95786.69;4995005;28;20018;-27
2023/03/08 09:17:05;;;;;;;8.75;3.30;;;;;;;14.10;70.43;95794.69;4996888;28;20024;-26
2023/03/08 09:19:31;;;;;;;9.77;4.38;;;;;;;14.30;70.08;95797.59;5000664;28;20034;-26
2023/03/08 09:21:57;;;;;;;8.18;3.30;;;;;;;14.65;67.73;95797.81;4998404;28;20031;-27
2023/03/08 09:24:23;;;;;;;9.25;3.42;;;;;;;14.32;69.25;95809.56;5010124;28;20473;-27
2023/03/08 09:26:48;;;;;;;11.40;3.90;;;;;;;14.53;68.27;95807.00;4995902;28;20018;-27
2023/03/08 09:29:13;;;;;;;9.77;3.50;;;;;;;14.54;68.59;95803.81;4996832;28;20029;-27
2023/03/08 09:31:39;;;;;;;10.45;3.35;;;;;;;14.47;68.82;95795.22;4995901;28;20077;-27
2023/03/08 09:34:07;;;;;;;14.15;3.75;;;;;;;14.51;68.79;95787.63;4996384;28;20026;-27
2023/03/08 09:36:33;;;;;;;11.98;3.53;;;;;;;14.39;69.62;95775.72;5002350;28;20061;-27
2023/03/08 09:38:59;;;;;;;10.75;3.35;;;;;;;14.45;69.46;95775.84;5012147;28;20030;-26
2023/03/08 09:41:45;;;;;;;9.82;3.40;;;;;;;14.88;67.25;95779.84;4998248;28;20537;-27
2023/03/08 09:44:15;;;;;;;10.60;3.38;;;;;;;14.82;66.63;95773.56;4998571;28;20040;-26
2023/03/08 09:46:48;;;;;;;9.90;3.20;;;;;;;14.59;69.53;95792.22;5002763;28;20030;-26
2023/03/08 09:49:28;;;;;;;12.02;2.92;;;;;;;14.57;68.87;95786.50;4995765;28;20026;-26
2023/03/08 09:52:20;;;;;;;11.63;3.42;;;;;;;14.72;68.02;95781.81;4998736;28;20032;-26
2023/03/08 09:54:47;;;;;;;13.55;3.85;;;;;;;14.80;67.87;95784.19;5004734;28;20101;-27
2023/03/08 09:57:36;;;;;;;9.18;2.67;;;;;;;15.00;66.21;95785.03;5000046;28;20028;-27
2023/03/08 10:00:18;;;;;;;9.00;4.18;;;;;;;14.74;68.37;95770.44;4999623;28;20014;-26
2023/03/08 10:03:11;;;;;;;11.65;3.63;;;;;;;14.82;68.41;95776.28;4997061;28;20108;-26
2023/03/08 10:05:42;;;;;;;10.65;3.63;;;;;;;14.67;68.90;95759.88;4995988;28;20030;-27
2023/03/08 10:08:23;;;;;;;16.27;4.57;;;;;;;14.65;68.16;95760.34;4998343;28;20018;-26
2023/03/08 10:11:02;;;;;;;12.70;4.03;;;;;;;14.79;67.41;95760.84;4997357;28;20023;-26
2023/03/08 10:13:33;;;;;;;14.75;3.80;;;;;;;14.69;68.03;95785.50;4999898;28;20026;-26
2023/03/08 10:16:25;;;;;;;7.50;2.80;;;;;;;14.67;68.32;95779.00;4996333;28;20426;-26
2023/03/08 10:19:37;;;;;;;10.90;3.63;;;;;;;14.87;67.13;95779.09;4995985;28;20026;-26
2023/03/08 10:22:14;;;;;;;8.27;3.40;;;;;;;14.60;68.70;95782.06;4971460;28;20034;-26
2023/03/08 10:24:50;;;;;;;10.05;2.97;;;;;;;14.80;67.81;95782.22;4971594;28;20034;-26
2023/03/08 10:27:20;;;;;;;11.38;3.50;;;;;;;14.96;67.23;95783.75;4971524;28;20023;-26
2023/03/08 10:29:55;;;;;;;14.32;3.20;;;;;;;14.98;67.07;95782.03;4971777;28;20030;-26
2023/03/08 10:32:22;;;;;;;8.43;3.03;;;;;;;14.94;67.33;95764.34;4971483;28;20046;-26
2023/03/08 10:34:49;;;;;;;8.63;3.17;;;;;;;15.17;66.09;95770.91;4971570;28;20045;-27
2023/03/08 10:37:15;;;;;;;19.02;4.40;;;;;;;14.81;67.85;95772.81;4971213;28;20038;-26
2023/03/08 10:39:53;;;;;;;11.15;3.42;;;;;;;14.89;67.22;95770.44;4971643;28;20080;-26
2023/03/08 10:42:21;;;;;;;11.13;3.17;;;;;;;14.88;67.58;95779.84;4955239;28;20031;-26
2023/03/08 10:44:59;;;;;;;13.57;4.72;;;;;;;15.04;66.89;95791.06;4971543;28;20039;-26
2023/03/08 10:47:35;;;;;;;8.35;2.97;;;;;;;14.97;67.40;95791.44;4951743;28;20539;-26
2023/03/08 10:50:16;;;;;;;16.88;4.05;;;;;;;15.22;65.96;95776.47;4975366;28;20034;-26
2023/03/08 10:52:43;;;;;;;10.15;3.53;;;;;;;15.06;66.21;95774.22;4958998;28;20019;-27
2023/03/08 10:55:09;;;;;;;11.50;3.65;;;;;;;15.07;67.07;95789.38;4975356;28;20106;-26
2023/03/08 10:57:34;;;;;;;14.10;3.50;;;;;;;14.91;67.00;95784.38;4986527;28;20112;-26
2023/03/08 11:00:20;;;;;;;9.23;3.35;;;;;;;14.82;67.84;95798.13;5002677;28;20021;-26
2023/03/08 11:02:48;;;;;;;10.90;3.28;;;;;;;15.00;66.63;95800.66;5003202;28;20445;-26
2023/03/08 11:05:25;;;;;;;15.25;3.08;;;;;;;14.98;67.15;95811.31;5003661;28;20023;-26
2023/03/08 11:07:56;;;;;;;14.10;3.85;;;;;;;14.91;67.27;95808.94;4999170;28;20494;-26
2023/03/08 11:10:23;;;;;;;11.85;3.92;;;;;;;15.16;65.28;95800.22;5003379;28;20057;-27
2023/03/08 11:13:19;;;;;;;12.45;4.13;;;;;;;14.98;66.60;95808.56;5000379;28;20475;-27
2023/03/08 11:15:54;;;;;;;10.43;4.43;;;;;;;15.22;65.07;95798.31;5001070;28;20063;-26
2023/03/08 11:18:40;;;;;;;18.85;4.22;;;;;;;14.96;66.56;95800.13;4998530;28;20106;-26
2023/03/08 11:21:17;;;;;;;7.88;2.97;;;;;;;15.02;65.17;95803.69;4999162;28;21865;-27
2023/03/08 11:23:47;;;;;;;13.80;3.60;;;;;;;14.89;67.00;95805.94;5004857;28;20025;-27
2023/03/08 11:26:43;;;;;;;9.85;3.30;;;;;;;14.93;66.93;95810.00;5000175;28;20360;-26
2023/03/08 11:29:36;;;;;;;10.93;2.88;;;;;;;15.03;66.41;95813.38;5000236;28;20058;-27
2023/03/08 11:32:13;;;;;;;9.07;3.70;;;;;;;14.80;67.16;95822.41;5001123;28;20115;-26
2023/03/08 11:34:47;;;;;;;21.15;5.88;;;;;;;15.07;65.67;95812.00;4998048;28;20380;-27